Aeroporto :
LOGIN :

Iscrizione | Disclaimer

   EN    FR    IT 

 










Sommario :    VFR   VFR Marginale   IFR   IFR Intensivo   IFR Molto Intensivo
Visibilità : 
Base nubi : 
>= 8 km
>= 3000ft
5 / 8 km
1000 / 3000 ft
1500m / 5 km
500 / 1000 ft
800 / 1500m
200 / 500 ft
< 800m
< 200 ft
Simboli :   Temporali  Nebbia  Neve Forte  Precipitazioni Forti  Vento > 20 kt
SIGMETs :   Varie  Temporali  Ghiacco  Turbolenza  Onda orograficha  Ceneri Vulcaniche






- Altitudine del aeroporto : 458 ft


LFSI - St-Dizier

ULTIMO METAR :
  • 041600Z AUTO 07005KT 5000 -RA BR FEW013/// OVC054/// //////TCU 03/02 Q1012

METARs OBSOLETI :
  • 041530Z AUTO 07004KT 6000 -RA OVC012/// ///TCU 03/02 Q1012
  • 041500Z AUTO 08005KT 7000 -RA OVC012/// ///CB 03/02 Q1012
  • 041430Z AUTO 08006KT 6000 -RA BKN009/// BKN013/// OVC064/// ///TCU 03/02 Q1012
  • 041400Z AUTO 09008KT 6000 -RA BKN010 OVC064 03/02 Q1012
  • 041330Z AUTO 08009KT 6000 -RA BKN011 BKN023 OVC076 03/02 Q1012

TAF TAF LFSI
Valido dal 04 a 15 ore il 05 a 15 ore UTC


041400Z 0415/0515 08005KT 8000 BKN010
TEMPO 0502/0510 2000 RADZ OVC005
BECMG 0512/0514 24007KT



MetMap, La meteo Aeronautica in un colpo d'occhio ! - Copyright ORBIFLY Dicembre 2007 - Disclaimer

ORBIFLY MET'MAP TEAM :

Programmazione e sviluppo : Alexandra Zaïnal
Concezione : Baudouin d'Aumeries
Supporto tecnico e logistico : Manuel Goepfert
Aiuto : Marc-Olivier Méhu
Aiuto per la traduzione : Arnaldo La Scala




FONTI E CREDITI :

   NOAA